Pagrindinis puslapis
METAR-TAF:

METAR-TAF

Oro uostai :

Trasa Zeltweg

Zeltweg, Austrija

platuma: 47-12N, ilguma: 014-45E, Aukštis: 677 m

Dabartinis oras

Ataskaita buvo paskelbta 2 valandos ir 2 minutes, ne 20:50 UTC
Vėjas 2 kt iš Šiaurės/Šiaurės Vakarų
Temperatūra -3°C
Drėgmė 93%
Slėgis 1011 hPa

METAR: LOXZ 272050Z 33002KT 10KM FEW060SC BKN200CI M03/M04 Q1011

Laikas: 23:52 (22:52 UTC)

Prognozė

Ataskaita buvo paskelbta 11 valandos ir 37 minutes, ne 11:15 UTC
Prognozė galioja nuo 27 metu 12 UTC su 27 metu 21 UTC
Vėjas 3 kt nuo kintamojo kryptimis
Matomumas 10 km arba daugiau
Mažai debesys ne aukštis 6000 ft

TAF: LOXZ 271115Z 2712/2721 VRB03KT 9999 FEW060

Orai ataskaitas ir orų prognozės (METAR, TAF).

turimą stotys yra geltonos ir raudonos taškus žemėlapyje.

Perkelti pele per norėdami pamatyti stoties vardą.

Tada spustelėkite, norėdami matyti oro stebėjimo ir prognozės.

Norėdami pakeisti žemėlapį: spustelėkite ant žalios mygtukų su juodo kryžiaus žemyn,; žalią mygtuką su brūkšneliu, jei norite nutolinti; arba žalių rodyklių gretimoms žemėlapius.


METAR-TAF: